sensor_id;sensor_type;location;lat;lon;timestamp;temperature;humidity
71668;DHT22;59504;54.806;9.640;2023-11-21T00:01:26;6.90;86.30
71668;DHT22;59504;54.806;9.640;2023-11-21T00:03:45;6.90;86.00
71668;DHT22;59504;54.806;9.640;2023-11-21T00:06:05;6.80;86.30
71668;DHT22;59504;54.806;9.640;2023-11-21T00:08:27;6.80;86.20
71668;DHT22;59504;54.806;9.640;2023-11-21T00:10:47;6.80;86.20
71668;DHT22;59504;54.806;9.640;2023-11-21T00:13:06;6.90;86.10
71668;DHT22;59504;54.806;9.640;2023-11-21T00:15:26;6.90;86.10
71668;DHT22;59504;54.806;9.640;2023-11-21T00:17:45;6.70;85.70
71668;DHT22;59504;54.806;9.640;2023-11-21T00:20:05;6.80;86.50
71668;DHT22;59504;54.806;9.640;2023-11-21T00:22:25;6.80;86.60
71668;DHT22;59504;54.806;9.640;2023-11-21T00:24:45;6.80;86.80
71668;DHT22;59504;54.806;9.640;2023-11-21T00:27:04;6.70;86.00
71668;DHT22;59504;54.806;9.640;2023-11-21T00:29:23;6.70;87.00
71668;DHT22;59504;54.806;9.640;2023-11-21T00:31:43;6.70;86.30
71668;DHT22;59504;54.806;9.640;2023-11-21T00:34:02;6.80;86.30
71668;DHT22;59504;54.806;9.640;2023-11-21T00:36:22;6.70;86.20
71668;DHT22;59504;54.806;9.640;2023-11-21T00:38:41;6.70;86.10
71668;DHT22;59504;54.806;9.640;2023-11-21T00:41:01;6.70;86.20
71668;DHT22;59504;54.806;9.640;2023-11-21T00:43:24;6.60;86.20
71668;DHT22;59504;54.806;9.640;2023-11-21T00:45:44;6.60;86.40
71668;DHT22;59504;54.806;9.640;2023-11-21T00:48:03;6.60;86.40
71668;DHT22;59504;54.806;9.640;2023-11-21T00:50:23;6.70;86.30
71668;DHT22;59504;54.806;9.640;2023-11-21T00:52:43;6.70;86.00
71668;DHT22;59504;54.806;9.640;2023-11-21T00:55:02;6.70;86.30
71668;DHT22;59504;54.806;9.640;2023-11-21T00:57:22;6.70;86.10
71668;DHT22;59504;54.806;9.640;2023-11-21T00:59:41;6.70;86.20
71668;DHT22;59504;54.806;9.640;2023-11-21T01:02:00;6.70;86.00
71668;DHT22;59504;54.806;9.640;2023-11-21T01:04:02;6.70;86.70
71668;DHT22;59504;54.806;9.640;2023-11-21T01:06:03;6.80;85.90
71668;DHT22;59504;54.806;9.640;2023-11-21T01:08:05;6.80;86.00
71668;DHT22;59504;54.806;9.640;2023-11-21T01:10:06;6.80;86.00
71668;DHT22;59504;54.806;9.640;2023-11-21T01:12:08;6.80;86.10
71668;DHT22;59504;54.806;9.640;2023-11-21T01:14:09;6.80;85.70
71668;DHT22;59504;54.806;9.640;2023-11-21T01:16:10;6.90;85.50
71668;DHT22;59504;54.806;9.640;2023-11-21T01:18:12;6.80;85.50
71668;DHT22;59504;54.806;9.640;2023-11-21T01:20:12;6.80;85.60
71668;DHT22;59504;54.806;9.640;2023-11-21T01:22:13;6.80;85.20
71668;DHT22;59504;54.806;9.640;2023-11-21T01:24:13;6.80;85.30
71668;DHT22;59504;54.806;9.640;2023-11-21T01:26:14;6.80;85.50
71668;DHT22;59504;54.806;9.640;2023-11-21T01:28:26;6.80;85.30
71668;DHT22;59504;54.806;9.640;2023-11-21T01:30:27;6.80;85.20
71668;DHT22;59504;54.806;9.640;2023-11-21T01:32:27;6.80;85.20
71668;DHT22;59504;54.806;9.640;2023-11-21T01:34:28;6.80;85.40
71668;DHT22;59504;54.806;9.640;2023-11-21T01:36:31;6.80;85.20
71668;DHT22;59504;54.806;9.640;2023-11-21T01:38:55;6.80;85.20
71668;DHT22;59504;54.806;9.640;2023-11-21T01:41:19;6.70;85.10
71668;DHT22;59504;54.806;9.640;2023-11-21T01:43:36;6.70;85.00
71668;DHT22;59504;54.806;9.640;2023-11-21T01:45:37;6.70;84.80
71668;DHT22;59504;54.806;9.640;2023-11-21T01:47:39;6.80;84.90
71668;DHT22;59504;54.806;9.640;2023-11-21T01:49:43;6.70;84.80
71668;DHT22;59504;54.806;9.640;2023-11-21T01:51:46;6.80;84.70
71668;DHT22;59504;54.806;9.640;2023-11-21T01:53:47;6.70;84.70
71668;DHT22;59504;54.806;9.640;2023-11-21T01:55:48;6.70;84.90
71668;DHT22;59504;54.806;9.640;2023-11-21T01:57:49;6.80;84.90
71668;DHT22;59504;54.806;9.640;2023-11-21T01:59:50;6.80;84.80
71668;DHT22;59504;54.806;9.640;2023-11-21T02:01:51;6.80;84.60
71668;DHT22;59504;54.806;9.640;2023-11-21T02:03:52;6.80;84.70
71668;DHT22;59504;54.806;9.640;2023-11-21T02:05:53;6.80;84.60
71668;DHT22;59504;54.806;9.640;2023-11-21T02:07:54;6.70;84.50
71668;DHT22;59504;54.806;9.640;2023-11-21T02:09:54;6.70;84.50
71668;DHT22;59504;54.806;9.640;2023-11-21T02:12:15;6.70;84.30
71668;DHT22;59504;54.806;9.640;2023-11-21T02:14:17;6.70;84.40
71668;DHT22;59504;54.806;9.640;2023-11-21T02:16:40;6.80;84.10
71668;DHT22;59504;54.806;9.640;2023-11-21T02:19:01;6.70;84.40
71668;DHT22;59504;54.806;9.640;2023-11-21T02:21:04;6.70;84.40
71668;DHT22;59504;54.806;9.640;2023-11-21T02:23:24;6.60;84.50
71668;DHT22;59504;54.806;9.640;2023-11-21T02:25:49;6.60;85.40
71668;DHT22;59504;54.806;9.640;2023-11-21T02:28:09;6.70;84.80
71668;DHT22;59504;54.806;9.640;2023-11-21T02:30:33;6.60;84.40
71668;DHT22;59504;54.806;9.640;2023-11-21T02:32:53;6.70;84.60
71668;DHT22;59504;54.806;9.640;2023-11-21T02:35:14;6.70;84.60
71668;DHT22;59504;54.806;9.640;2023-11-21T02:37:33;6.70;84.50
71668;DHT22;59504;54.806;9.640;2023-11-21T02:39:46;6.70;84.60
71668;DHT22;59504;54.806;9.640;2023-11-21T02:42:07;6.60;84.50
71668;DHT22;59504;54.806;9.640;2023-11-21T02:44:28;6.80;84.80
71668;DHT22;59504;54.806;9.640;2023-11-21T02:46:48;6.60;84.80
71668;DHT22;59504;54.806;9.640;2023-11-21T02:49:09;6.70;84.80
71668;DHT22;59504;54.806;9.640;2023-11-21T02:51:30;6.60;84.60
71668;DHT22;59504;54.806;9.640;2023-11-21T02:53:50;6.60;84.50
71668;DHT22;59504;54.806;9.640;2023-11-21T02:56:11;6.60;84.60
71668;DHT22;59504;54.806;9.640;2023-11-21T02:58:32;6.70;84.80
71668;DHT22;59504;54.806;9.640;2023-11-21T03:00:53;6.60;84.70
71668;DHT22;59504;54.806;9.640;2023-11-21T03:03:14;6.60;84.50
71668;DHT22;59504;54.806;9.640;2023-11-21T03:05:35;6.60;84.60
71668;DHT22;59504;54.806;9.640;2023-11-21T03:07:57;6.60;84.60
71668;DHT22;59504;54.806;9.640;2023-11-21T03:10:17;6.50;84.60
71668;DHT22;59504;54.806;9.640;2023-11-21T03:12:39;6.50;84.60
71668;DHT22;59504;54.806;9.640;2023-11-21T03:15:04;6.50;84.50
71668;DHT22;59504;54.806;9.640;2023-11-21T03:17:26;6.50;84.40
71668;DHT22;59504;54.806;9.640;2023-11-21T03:19:46;6.50;84.30
71668;DHT22;59504;54.806;9.640;2023-11-21T03:22:07;6.40;84.30
71668;DHT22;59504;54.806;9.640;2023-11-21T03:24:28;6.50;84.60
71668;DHT22;59504;54.806;9.640;2023-11-21T03:26:49;6.50;84.60
71668;DHT22;59504;54.806;9.640;2023-11-21T03:29:11;6.40;84.60
71668;DHT22;59504;54.806;9.640;2023-11-21T03:31:31;6.50;84.70
71668;DHT22;59504;54.806;9.640;2023-11-21T03:33:52;6.50;84.60
71668;DHT22;59504;54.806;9.640;2023-11-21T03:36:14;6.40;84.20
71668;DHT22;59504;54.806;9.640;2023-11-21T03:38:38;6.50;84.60
71668;DHT22;59504;54.806;9.640;2023-11-21T03:40:59;6.50;84.60
71668;DHT22;59504;54.806;9.640;2023-11-21T03:43:19;6.50;84.60
71668;DHT22;59504;54.806;9.640;2023-11-21T03:45:40;6.60;84.50
71668;DHT22;59504;54.806;9.640;2023-11-21T03:48:01;6.50;84.40
71668;DHT22;59504;54.806;9.640;2023-11-21T03:50:22;6.50;84.30
71668;DHT22;59504;54.806;9.640;2023-11-21T03:52:42;6.50;84.40
71668;DHT22;59504;54.806;9.640;2023-11-21T03:55:03;6.50;84.40
71668;DHT22;59504;54.806;9.640;2023-11-21T03:57:24;6.50;84.30
71668;DHT22;59504;54.806;9.640;2023-11-21T03:59:44;6.60;84.40
71668;DHT22;59504;54.806;9.640;2023-11-21T04:02:05;6.50;84.00
71668;DHT22;59504;54.806;9.640;2023-11-21T04:04:24;6.50;84.10
71668;DHT22;59504;54.806;9.640;2023-11-21T04:06:43;6.50;84.10
71668;DHT22;59504;54.806;9.640;2023-11-21T04:09:03;6.50;84.10
71668;DHT22;59504;54.806;9.640;2023-11-21T04:11:23;6.50;83.90
71668;DHT22;59504;54.806;9.640;2023-11-21T04:13:42;6.60;84.00
71668;DHT22;59504;54.806;9.640;2023-11-21T04:16:02;6.60;83.80
71668;DHT22;59504;54.806;9.640;2023-11-21T04:18:22;6.60;83.60
71668;DHT22;59504;54.806;9.640;2023-11-21T04:20:41;6.60;84.40
71668;DHT22;59504;54.806;9.640;2023-11-21T04:23:00;6.70;83.50
71668;DHT22;59504;54.806;9.640;2023-11-21T04:25:19;6.60;83.50
71668;DHT22;59504;54.806;9.640;2023-11-21T04:27:43;6.60;83.50
71668;DHT22;59504;54.806;9.640;2023-11-21T04:30:03;6.60;83.50
71668;DHT22;59504;54.806;9.640;2023-11-21T04:32:22;6.60;84.30
71668;DHT22;59504;54.806;9.640;2023-11-21T04:34:41;6.60;83.20
71668;DHT22;59504;54.806;9.640;2023-11-21T04:37:00;6.60;83.20
71668;DHT22;59504;54.806;9.640;2023-11-21T04:39:19;6.60;83.10
71668;DHT22;59504;54.806;9.640;2023-11-21T04:41:39;6.60;82.90
71668;DHT22;59504;54.806;9.640;2023-11-21T04:43:58;6.60;82.90
71668;DHT22;59504;54.806;9.640;2023-11-21T04:46:19;6.50;82.90
71668;DHT22;59504;54.806;9.640;2023-11-21T04:48:38;6.50;83.00
71668;DHT22;59504;54.806;9.640;2023-11-21T04:50:58;6.60;83.10
71668;DHT22;59504;54.806;9.640;2023-11-21T04:53:17;6.50;83.00
71668;DHT22;59504;54.806;9.640;2023-11-21T04:55:36;6.60;83.00
71668;DHT22;59504;54.806;9.640;2023-11-21T04:57:56;6.50;83.60
71668;DHT22;59504;54.806;9.640;2023-11-21T05:00:15;6.50;82.70
71668;DHT22;59504;54.806;9.640;2023-11-21T05:02:34;6.50;83.00
71668;DHT22;59504;54.806;9.640;2023-11-21T05:04:57;6.50;82.90
71668;DHT22;59504;54.806;9.640;2023-11-21T05:07:16;6.40;82.80
71668;DHT22;59504;54.806;9.640;2023-11-21T05:09:35;6.40;82.90
71668;DHT22;59504;54.806;9.640;2023-11-21T05:11:54;6.40;82.90
71668;DHT22;59504;54.806;9.640;2023-11-21T05:14:14;6.40;83.80
71668;DHT22;59504;54.806;9.640;2023-11-21T05:16:33;6.40;83.00
71668;DHT22;59504;54.806;9.640;2023-11-21T05:18:53;6.40;83.00
71668;DHT22;59504;54.806;9.640;2023-11-21T05:21:15;6.40;83.10
71668;DHT22;59504;54.806;9.640;2023-11-21T05:23:34;6.40;82.90
71668;DHT22;59504;54.806;9.640;2023-11-21T05:25:54;6.40;82.80
71668;DHT22;59504;54.806;9.640;2023-11-21T05:28:13;6.40;83.60
71668;DHT22;59504;54.806;9.640;2023-11-21T05:30:32;6.30;83.00
71668;DHT22;59504;54.806;9.640;2023-11-21T05:32:52;6.40;82.90
71668;DHT22;59504;54.806;9.640;2023-11-21T05:35:12;6.30;82.90
71668;DHT22;59504;54.806;9.640;2023-11-21T05:37:34;6.30;83.60
71668;DHT22;59504;54.806;9.640;2023-11-21T05:39:53;6.20;82.80
71668;DHT22;59504;54.806;9.640;2023-11-21T05:42:15;6.20;83.00
71668;DHT22;59504;54.806;9.640;2023-11-21T05:44:34;6.30;83.10
71668;DHT22;59504;54.806;9.640;2023-11-21T05:46:53;6.30;83.90
71668;DHT22;59504;54.806;9.640;2023-11-21T05:49:12;6.30;83.80
71668;DHT22;59504;54.806;9.640;2023-11-21T05:51:31;6.30;83.10
71668;DHT22;59504;54.806;9.640;2023-11-21T05:53:51;6.30;83.80
71668;DHT22;59504;54.806;9.640;2023-11-21T05:56:10;6.30;83.10
71668;DHT22;59504;54.806;9.640;2023-11-21T05:58:29;6.40;83.80
71668;DHT22;59504;54.806;9.640;2023-11-21T06:00:49;6.10;82.80
71668;DHT22;59504;54.806;9.640;2023-11-21T06:03:08;6.20;83.00
71668;DHT22;59504;54.806;9.640;2023-11-21T06:05:27;6.20;82.70
71668;DHT22;59504;54.806;9.640;2023-11-21T06:07:47;6.20;83.10
71668;DHT22;59504;54.806;9.640;2023-11-21T06:10:07;6.20;82.90
71668;DHT22;59504;54.806;9.640;2023-11-21T06:12:29;6.20;83.10
71668;DHT22;59504;54.806;9.640;2023-11-21T06:14:49;6.20;83.00
71668;DHT22;59504;54.806;9.640;2023-11-21T06:17:09;6.20;83.00
71668;DHT22;59504;54.806;9.640;2023-11-21T06:19:28;6.20;82.80
71668;DHT22;59504;54.806;9.640;2023-11-21T06:21:48;6.20;83.00
71668;DHT22;59504;54.806;9.640;2023-11-21T06:24:10;6.20;82.80
71668;DHT22;59504;54.806;9.640;2023-11-21T06:26:29;6.10;82.70
71668;DHT22;59504;54.806;9.640;2023-11-21T06:28:36;6.20;83.50
71668;DHT22;59504;54.806;9.640;2023-11-21T06:30:56;6.20;82.50
71668;DHT22;59504;54.806;9.640;2023-11-21T06:33:16;6.20;82.70
71668;DHT22;59504;54.806;9.640;2023-11-21T06:35:36;6.20;83.60
71668;DHT22;59504;54.806;9.640;2023-11-21T06:37:55;6.10;82.80
71668;DHT22;59504;54.806;9.640;2023-11-21T06:40:14;6.20;83.60
71668;DHT22;59504;54.806;9.640;2023-11-21T06:42:39;6.10;82.80
71668;DHT22;59504;54.806;9.640;2023-11-21T06:44:59;6.10;82.50
71668;DHT22;59504;54.806;9.640;2023-11-21T06:47:25;6.00;82.90
71668;DHT22;59504;54.806;9.640;2023-11-21T06:49:44;6.10;82.50
71668;DHT22;59504;54.806;9.640;2023-11-21T06:52:06;6.20;82.60
71668;DHT22;59504;54.806;9.640;2023-11-21T06:54:26;6.20;82.80
71668;DHT22;59504;54.806;9.640;2023-11-21T06:56:46;6.20;82.70
71668;DHT22;59504;54.806;9.640;2023-11-21T06:59:06;6.20;82.80
71668;DHT22;59504;54.806;9.640;2023-11-21T07:01:25;6.30;82.80
71668;DHT22;59504;54.806;9.640;2023-11-21T07:03:45;6.30;82.70
71668;DHT22;59504;54.806;9.640;2023-11-21T07:06:04;6.20;82.50
71668;DHT22;59504;54.806;9.640;2023-11-21T07:08:23;6.20;82.50
71668;DHT22;59504;54.806;9.640;2023-11-21T07:10:42;6.30;82.30
71668;DHT22;59504;54.806;9.640;2023-11-21T07:13:02;6.30;82.30
71668;DHT22;59504;54.806;9.640;2023-11-21T07:15:21;6.30;82.20
71668;DHT22;59504;54.806;9.640;2023-11-21T07:17:41;6.20;82.20
71668;DHT22;59504;54.806;9.640;2023-11-21T07:20:01;6.30;82.20
71668;DHT22;59504;54.806;9.640;2023-11-21T07:22:20;6.30;82.00
71668;DHT22;59504;54.806;9.640;2023-11-21T07:24:37;6.10;81.90
71668;DHT22;59504;54.806;9.640;2023-11-21T07:26:56;6.20;81.90
71668;DHT22;59504;54.806;9.640;2023-11-21T07:29:16;6.30;82.20
71668;DHT22;59504;54.806;9.640;2023-11-21T07:31:37;6.20;82.10
71668;DHT22;59504;54.806;9.640;2023-11-21T07:34:00;6.10;82.80
71668;DHT22;59504;54.806;9.640;2023-11-21T07:36:19;6.10;82.00
71668;DHT22;59504;54.806;9.640;2023-11-21T07:38:42;6.20;82.10
71668;DHT22;59504;54.806;9.640;2023-11-21T07:41:01;6.20;82.10
71668;DHT22;59504;54.806;9.640;2023-11-21T07:43:20;6.10;81.90
71668;DHT22;59504;54.806;9.640;2023-11-21T07:45:40;6.20;81.90
71668;DHT22;59504;54.806;9.640;2023-11-21T07:48:00;6.20;81.90
71668;DHT22;59504;54.806;9.640;2023-11-21T07:50:22;6.20;81.80
71668;DHT22;59504;54.806;9.640;2023-11-21T07:52:42;6.20;81.80
71668;DHT22;59504;54.806;9.640;2023-11-21T07:55:01;6.10;81.80
71668;DHT22;59504;54.806;9.640;2023-11-21T07:57:20;6.20;82.50
71668;DHT22;59504;54.806;9.640;2023-11-21T07:59:40;6.20;82.60
71668;DHT22;59504;54.806;9.640;2023-11-21T08:02:02;6.20;81.50
71668;DHT22;59504;54.806;9.640;2023-11-21T08:04:21;6.10;81.10
71668;DHT22;59504;54.806;9.640;2023-11-21T08:06:41;6.20;81.20
71668;DHT22;59504;54.806;9.640;2023-11-21T08:09:00;6.10;81.10
71668;DHT22;59504;54.806;9.640;2023-11-21T08:11:20;6.20;81.20
71668;DHT22;59504;54.806;9.640;2023-11-21T08:13:28;6.20;81.20
71668;DHT22;59504;54.806;9.640;2023-11-21T08:15:48;6.10;81.10
71668;DHT22;59504;54.806;9.640;2023-11-21T08:17:49;6.10;80.90
71668;DHT22;59504;54.806;9.640;2023-11-21T08:19:50;6.10;80.90
71668;DHT22;59504;54.806;9.640;2023-11-21T08:21:54;6.20;80.90
71668;DHT22;59504;54.806;9.640;2023-11-21T08:23:54;6.20;81.10
71668;DHT22;59504;54.806;9.640;2023-11-21T08:25:55;6.30;81.10
71668;DHT22;59504;54.806;9.640;2023-11-21T08:27:56;6.20;80.80
71668;DHT22;59504;54.806;9.640;2023-11-21T08:29:57;6.20;80.90
71668;DHT22;59504;54.806;9.640;2023-11-21T08:32:04;6.20;81.00
71668;DHT22;59504;54.806;9.640;2023-11-21T08:34:08;6.20;81.00
71668;DHT22;59504;54.806;9.640;2023-11-21T08:36:29;6.30;80.90
71668;DHT22;59504;54.806;9.640;2023-11-21T08:38:49;6.30;80.90
71668;DHT22;59504;54.806;9.640;2023-11-21T08:41:12;6.20;80.80
71668;DHT22;59504;54.806;9.640;2023-11-21T08:43:30;6.20;80.80
71668;DHT22;59504;54.806;9.640;2023-11-21T08:45:51;6.20;80.60
71668;DHT22;59504;54.806;9.640;2023-11-21T08:47:52;6.20;80.70
71668;DHT22;59504;54.806;9.640;2023-11-21T08:50:13;6.20;80.50
71668;DHT22;59504;54.806;9.640;2023-11-21T08:52:47;6.10;80.30
71668;DHT22;59504;54.806;9.640;2023-11-21T08:55:08;6.10;80.30
71668;DHT22;59504;54.806;9.640;2023-11-21T08:57:28;6.20;80.30
71668;DHT22;59504;54.806;9.640;2023-11-21T08:59:50;6.20;80.40
71668;DHT22;59504;54.806;9.640;2023-11-21T09:02:15;6.20;80.70
71668;DHT22;59504;54.806;9.640;2023-11-21T09:04:36;6.30;80.90
71668;DHT22;59504;54.806;9.640;2023-11-21T09:06:56;6.20;80.70
71668;DHT22;59504;54.806;9.640;2023-11-21T09:09:17;6.20;80.80
71668;DHT22;59504;54.806;9.640;2023-11-21T09:11:41;6.30;80.60
71668;DHT22;59504;54.806;9.640;2023-11-21T09:14:02;6.10;80.50
71668;DHT22;59504;54.806;9.640;2023-11-21T09:16:23;6.30;80.50
71668;DHT22;59504;54.806;9.640;2023-11-21T09:18:44;6.30;80.60
71668;DHT22;59504;54.806;9.640;2023-11-21T09:20:46;6.30;80.70
71668;DHT22;59504;54.806;9.640;2023-11-21T09:22:47;6.40;80.50
71668;DHT22;59504;54.806;9.640;2023-11-21T09:24:47;6.30;80.50
71668;DHT22;59504;54.806;9.640;2023-11-21T09:27:08;6.40;80.60
71668;DHT22;59504;54.806;9.640;2023-11-21T09:29:09;6.40;80.50
71668;DHT22;59504;54.806;9.640;2023-11-21T09:31:30;6.40;80.40
71668;DHT22;59504;54.806;9.640;2023-11-21T09:33:51;6.40;80.30
71668;DHT22;59504;54.806;9.640;2023-11-21T09:36:12;6.30;80.00
71668;DHT22;59504;54.806;9.640;2023-11-21T09:38:34;6.30;79.60
71668;DHT22;59504;54.806;9.640;2023-11-21T09:40:55;6.30;79.90
71668;DHT22;59504;54.806;9.640;2023-11-21T09:43:18;6.30;80.10
71668;DHT22;59504;54.806;9.640;2023-11-21T09:45:39;6.30;80.10
71668;DHT22;59504;54.806;9.640;2023-11-21T09:47:40;6.40;80.30
71668;DHT22;59504;54.806;9.640;2023-11-21T09:49:40;6.50;80.10
71668;DHT22;59504;54.806;9.640;2023-11-21T09:51:42;6.40;80.30
71668;DHT22;59504;54.806;9.640;2023-11-21T09:53:43;6.40;80.20
71668;DHT22;59504;54.806;9.640;2023-11-21T09:55:48;6.40;80.60
71668;DHT22;59504;54.806;9.640;2023-11-21T09:57:51;6.40;79.80
71668;DHT22;59504;54.806;9.640;2023-11-21T09:59:53;6.40;79.60
71668;DHT22;59504;54.806;9.640;2023-11-21T10:01:59;6.40;79.60
71668;DHT22;59504;54.806;9.640;2023-11-21T10:03:59;6.40;79.60
71668;DHT22;59504;54.806;9.640;2023-11-21T10:06:00;6.30;79.30
71668;DHT22;59504;54.806;9.640;2023-11-21T10:08:09;6.30;79.50
71668;DHT22;59504;54.806;9.640;2023-11-21T10:10:13;6.40;79.60
71668;DHT22;59504;54.806;9.640;2023-11-21T10:12:15;6.40;79.50
71668;DHT22;59504;54.806;9.640;2023-11-21T10:14:15;6.40;79.50
71668;DHT22;59504;54.806;9.640;2023-11-21T10:16:18;6.40;79.40
71668;DHT22;59504;54.806;9.640;2023-11-21T10:18:21;6.40;79.50
71668;DHT22;59504;54.806;9.640;2023-11-21T10:20:25;6.30;79.00
71668;DHT22;59504;54.806;9.640;2023-11-21T10:22:26;6.30;79.00
71668;DHT22;59504;54.806;9.640;2023-11-21T10:24:26;6.30;79.10
71668;DHT22;59504;54.806;9.640;2023-11-21T10:26:27;6.30;79.00
71668;DHT22;59504;54.806;9.640;2023-11-21T10:28:28;6.30;79.30
71668;DHT22;59504;54.806;9.640;2023-11-21T10:30:32;6.30;79.10
71668;DHT22;59504;54.806;9.640;2023-11-21T10:32:33;6.30;79.10
71668;DHT22;59504;54.806;9.640;2023-11-21T10:34:34;6.30;79.00
71668;DHT22;59504;54.806;9.640;2023-11-21T10:36:35;6.30;79.20
71668;DHT22;59504;54.806;9.640;2023-11-21T10:38:41;6.30;79.10
71668;DHT22;59504;54.806;9.640;2023-11-21T10:40:43;6.30;79.20
71668;DHT22;59504;54.806;9.640;2023-11-21T10:42:45;6.30;79.30
71668;DHT22;59504;54.806;9.640;2023-11-21T10:44:45;6.30;79.40
71668;DHT22;59504;54.806;9.640;2023-11-21T10:46:55;6.40;79.60
71668;DHT22;59504;54.806;9.640;2023-11-21T10:49:01;6.30;79.60
71668;DHT22;59504;54.806;9.640;2023-11-21T10:51:06;6.30;79.80
71668;DHT22;59504;54.806;9.640;2023-11-21T10:53:28;6.40;80.00
71668;DHT22;59504;54.806;9.640;2023-11-21T10:55:32;6.40;79.90
71668;DHT22;59504;54.806;9.640;2023-11-21T10:57:33;6.40;79.90
71668;DHT22;59504;54.806;9.640;2023-11-21T10:59:33;6.40;79.70
71668;DHT22;59504;54.806;9.640;2023-11-21T11:01:34;6.40;79.60
71668;DHT22;59504;54.806;9.640;2023-11-21T11:03:35;6.40;79.10
71668;DHT22;59504;54.806;9.640;2023-11-21T11:05:56;6.40;79.20
71668;DHT22;59504;54.806;9.640;2023-11-21T11:08:05;6.50;79.10
71668;DHT22;59504;54.806;9.640;2023-11-21T11:10:26;6.40;78.20
71668;DHT22;59504;54.806;9.640;2023-11-21T11:12:47;6.40;77.90
71668;DHT22;59504;54.806;9.640;2023-11-21T11:14:48;6.40;78.00
71668;DHT22;59504;54.806;9.640;2023-11-21T11:17:09;6.40;78.00
71668;DHT22;59504;54.806;9.640;2023-11-21T11:19:31;6.50;78.10
71668;DHT22;59504;54.806;9.640;2023-11-21T11:24:27;6.40;77.70
71668;DHT22;59504;54.806;9.640;2023-11-21T11:26:55;6.40;77.90
71668;DHT22;59504;54.806;9.640;2023-11-21T11:34:26;6.40;78.00
71668;DHT22;59504;54.806;9.640;2023-11-21T11:37:00;6.40;78.60
71668;DHT22;59504;54.806;9.640;2023-11-21T11:39:36;6.40;78.30
71668;DHT22;59504;54.806;9.640;2023-11-21T11:41:36;6.40;78.30
71668;DHT22;59504;54.806;9.640;2023-11-21T11:43:37;6.50;78.50
71668;DHT22;59504;54.806;9.640;2023-11-21T11:45:44;6.40;78.00
71668;DHT22;59504;54.806;9.640;2023-11-21T11:47:49;6.40;77.70
71668;DHT22;59504;54.806;9.640;2023-11-21T11:54:34;6.40;77.40
71668;DHT22;59504;54.806;9.640;2023-11-21T11:56:35;6.30;77.10
71668;DHT22;59504;54.806;9.640;2023-11-21T11:58:37;6.30;76.60
71668;DHT22;59504;54.806;9.640;2023-11-21T12:00:38;6.40;76.70
71668;DHT22;59504;54.806;9.640;2023-11-21T12:02:40;6.30;76.80
71668;DHT22;59504;54.806;9.640;2023-11-21T12:04:41;6.30;76.90
71668;DHT22;59504;54.806;9.640;2023-11-21T12:06:41;6.30;77.10
71668;DHT22;59504;54.806;9.640;2023-11-21T12:08:42;6.30;77.10
71668;DHT22;59504;54.806;9.640;2023-11-21T12:10:45;6.30;77.10
71668;DHT22;59504;54.806;9.640;2023-11-21T12:12:46;6.30;77.60
71668;DHT22;59504;54.806;9.640;2023-11-21T12:14:47;6.20;76.80
71668;DHT22;59504;54.806;9.640;2023-11-21T12:16:47;6.30;76.80
71668;DHT22;59504;54.806;9.640;2023-11-21T12:18:48;6.20;76.60
71668;DHT22;59504;54.806;9.640;2023-11-21T12:20:49;6.30;76.60
71668;DHT22;59504;54.806;9.640;2023-11-21T12:22:51;6.20;76.80
71668;DHT22;59504;54.806;9.640;2023-11-21T12:25:09;6.10;76.70
71668;DHT22;59504;54.806;9.640;2023-11-21T12:27:09;6.10;76.90
71668;DHT22;59504;54.806;9.640;2023-11-21T12:29:10;6.20;77.10
71668;DHT22;59504;54.806;9.640;2023-11-21T12:31:11;6.10;77.30
71668;DHT22;59504;54.806;9.640;2023-11-21T12:33:12;6.10;77.70
71668;DHT22;59504;54.806;9.640;2023-11-21T12:35:18;6.10;77.70
71668;DHT22;59504;54.806;9.640;2023-11-21T12:37:20;6.10;77.50
71668;DHT22;59504;54.806;9.640;2023-11-21T12:39:20;6.10;77.30
71668;DHT22;59504;54.806;9.640;2023-11-21T12:41:23;6.10;77.00
71668;DHT22;59504;54.806;9.640;2023-11-21T12:43:25;6.10;76.70
71668;DHT22;59504;54.806;9.640;2023-11-21T12:45:26;6.10;76.70
71668;DHT22;59504;54.806;9.640;2023-11-21T12:47:27;6.10;77.00
71668;DHT22;59504;54.806;9.640;2023-11-21T12:49:28;6.00;77.10
71668;DHT22;59504;54.806;9.640;2023-11-21T12:51:28;6.10;77.20
71668;DHT22;59504;54.806;9.640;2023-11-21T12:53:30;6.20;77.20
71668;DHT22;59504;54.806;9.640;2023-11-21T12:55:37;6.00;77.30
71668;DHT22;59504;54.806;9.640;2023-11-21T12:57:40;6.10;77.10
71668;DHT22;59504;54.806;9.640;2023-11-21T12:59:41;6.10;77.10
71668;DHT22;59504;54.806;9.640;2023-11-21T13:01:43;6.10;77.20
71668;DHT22;59504;54.806;9.640;2023-11-21T13:03:45;6.10;77.10
71668;DHT22;59504;54.806;9.640;2023-11-21T13:05:48;6.10;76.70
71668;DHT22;59504;54.806;9.640;2023-11-21T13:07:55;6.10;77.00
71668;DHT22;59504;54.806;9.640;2023-11-21T13:09:57;6.10;76.60
71668;DHT22;59504;54.806;9.640;2023-11-21T13:12:01;6.10;76.30
71668;DHT22;59504;54.806;9.640;2023-11-21T13:14:04;6.20;76.30
71668;DHT22;59504;54.806;9.640;2023-11-21T13:16:08;6.10;76.00
71668;DHT22;59504;54.806;9.640;2023-11-21T13:18:10;6.20;76.30
71668;DHT22;59504;54.806;9.640;2023-11-21T13:20:11;6.10;75.70
71668;DHT22;59504;54.806;9.640;2023-11-21T13:22:40;6.20;75.70
71668;DHT22;59504;54.806;9.640;2023-11-21T13:25:04;6.20;75.40
71668;DHT22;59504;54.806;9.640;2023-11-21T13:27:27;6.10;75.30
71668;DHT22;59504;54.806;9.640;2023-11-21T13:29:50;6.10;74.80
71668;DHT22;59504;54.806;9.640;2023-11-21T13:32:11;6.10;74.30
71668;DHT22;59504;54.806;9.640;2023-11-21T13:34:32;6.10;75.10
71668;DHT22;59504;54.806;9.640;2023-11-21T13:36:53;6.10;73.90
71668;DHT22;59504;54.806;9.640;2023-11-21T13:39:18;6.10;74.00
71668;DHT22;59504;54.806;9.640;2023-11-21T13:41:41;6.00;73.40
71668;DHT22;59504;54.806;9.640;2023-11-21T13:44:02;6.00;73.80
71668;DHT22;59504;54.806;9.640;2023-11-21T13:46:27;6.00;73.30
71668;DHT22;59504;54.806;9.640;2023-11-21T13:48:27;6.00;73.20
71668;DHT22;59504;54.806;9.640;2023-11-21T13:50:49;6.00;73.20
71668;DHT22;59504;54.806;9.640;2023-11-21T13:52:58;6.00;72.70
71668;DHT22;59504;54.806;9.640;2023-11-21T13:55:02;6.00;72.60
71668;DHT22;59504;54.806;9.640;2023-11-21T13:57:06;6.00;72.40
71668;DHT22;59504;54.806;9.640;2023-11-21T13:59:07;6.00;72.90
71668;DHT22;59504;54.806;9.640;2023-11-21T14:01:22;6.00;72.30
71668;DHT22;59504;54.806;9.640;2023-11-21T14:03:31;6.00;72.40
71668;DHT22;59504;54.806;9.640;2023-11-21T14:05:52;6.00;72.50
71668;DHT22;59504;54.806;9.640;2023-11-21T14:07:52;6.00;72.70
71668;DHT22;59504;54.806;9.640;2023-11-21T14:09:55;6.00;73.00
71668;DHT22;59504;54.806;9.640;2023-11-21T14:12:04;6.10;73.20
71668;DHT22;59504;54.806;9.640;2023-11-21T14:14:06;6.00;73.20
71668;DHT22;59504;54.806;9.640;2023-11-21T14:16:07;6.00;73.00
71668;DHT22;59504;54.806;9.640;2023-11-21T14:18:10;6.10;73.20
71668;DHT22;59504;54.806;9.640;2023-11-21T14:20:11;6.00;73.00
71668;DHT22;59504;54.806;9.640;2023-11-21T14:22:16;6.10;73.20
71668;DHT22;59504;54.806;9.640;2023-11-21T14:24:17;6.00;73.30
71668;DHT22;59504;54.806;9.640;2023-11-21T14:26:18;6.10;72.80
71668;DHT22;59504;54.806;9.640;2023-11-21T14:28:25;6.10;72.80